Terminal Aerodrome Forecast
Issued by NWS

Home | Current Version | Previous Version | Text Only | Print | Product List | Glossary On
Versions: 1 2 3 4 5 6 7 8 9 10 11 12 13
255
FTUS44 KTSA 101724
TAFBVO
TAF
KBVO 101724Z 1018/1118 16013G20KT P6SM BKN050
     FM110100 17011KT P6SM SCT050 BKN250
     FM110900 17011G20KT P6SM BKN025
     FM111200 18014G20KT P6SM OVC015=

USA.gov is the U.S. government's official web portal to all federal, state and local government web resources and services.